sensor_id;sensor_type;location;lat;lon;timestamp;P1;durP1;ratioP1;P2;durP2;ratioP2
64110;SDS011;50401;48.188;11.566;2023-05-29T00:02:23;18.02;;;7.82;;
64110;SDS011;50401;48.188;11.566;2023-05-29T00:04:48;19.50;;;8.90;;
64110;SDS011;50401;48.188;11.566;2023-05-29T00:07:13;21.55;;;9.30;;
64110;SDS011;50401;48.188;11.566;2023-05-29T00:09:39;25.80;;;8.45;;
64110;SDS011;50401;48.188;11.566;2023-05-29T00:12:04;18.55;;;8.20;;
64110;SDS011;50401;48.188;11.566;2023-05-29T00:14:30;23.27;;;8.88;;
64110;SDS011;50401;48.188;11.566;2023-05-29T00:16:56;22.50;;;8.40;;
64110;SDS011;50401;48.188;11.566;2023-05-29T00:19:21;23.27;;;9.02;;
64110;SDS011;50401;48.188;11.566;2023-05-29T00:21:48;19.40;;;9.18;;
64110;SDS011;50401;48.188;11.566;2023-05-29T00:24:14;19.17;;;8.32;;
64110;SDS011;50401;48.188;11.566;2023-05-29T00:26:40;19.23;;;8.80;;
64110;SDS011;50401;48.188;11.566;2023-05-29T00:29:06;16.05;;;8.95;;
64110;SDS011;50401;48.188;11.566;2023-05-29T00:31:32;21.88;;;8.88;;
64110;SDS011;50401;48.188;11.566;2023-05-29T00:33:57;18.38;;;8.35;;
64110;SDS011;50401;48.188;11.566;2023-05-29T00:36:23;23.85;;;9.68;;
64110;SDS011;50401;48.188;11.566;2023-05-29T00:38:49;21.27;;;9.55;;
64110;SDS011;50401;48.188;11.566;2023-05-29T00:41:14;22.73;;;9.43;;
64110;SDS011;50401;48.188;11.566;2023-05-29T00:43:40;18.67;;;8.52;;
64110;SDS011;50401;48.188;11.566;2023-05-29T00:46:06;21.08;;;8.88;;
64110;SDS011;50401;48.188;11.566;2023-05-29T00:48:32;23.77;;;8.82;;
64110;SDS011;50401;48.188;11.566;2023-05-29T00:50:57;19.58;;;8.73;;
64110;SDS011;50401;48.188;11.566;2023-05-29T00:53:23;20.95;;;9.05;;
64110;SDS011;50401;48.188;11.566;2023-05-29T00:55:48;20.55;;;8.90;;
64110;SDS011;50401;48.188;11.566;2023-05-29T00:58:15;26.30;;;9.30;;
64110;SDS011;50401;48.188;11.566;2023-05-29T01:00:40;20.27;;;8.25;;
64110;SDS011;50401;48.188;11.566;2023-05-29T01:03:06;29.20;;;8.40;;
64110;SDS011;50401;48.188;11.566;2023-05-29T01:05:33;20.70;;;9.38;;
64110;SDS011;50401;48.188;11.566;2023-05-29T01:08:00;22.60;;;8.52;;
64110;SDS011;50401;48.188;11.566;2023-05-29T01:10:26;16.40;;;8.45;;
64110;SDS011;50401;48.188;11.566;2023-05-29T01:13:38;19.48;;;8.38;;
64110;SDS011;50401;48.188;11.566;2023-05-29T01:15:50;15.23;;;7.93;;
64110;SDS011;50401;48.188;11.566;2023-05-29T01:18:22;19.15;;;8.10;;
64110;SDS011;50401;48.188;11.566;2023-05-29T01:29:08;17.45;;;8.65;;
64110;SDS011;50401;48.188;11.566;2023-05-29T01:31:35;16.80;;;8.57;;
64110;SDS011;50401;48.188;11.566;2023-05-29T01:34:02;16.80;;;8.60;;
64110;SDS011;50401;48.188;11.566;2023-05-29T01:36:27;19.20;;;8.48;;
64110;SDS011;50401;48.188;11.566;2023-05-29T01:38:54;17.05;;;8.88;;
64110;SDS011;50401;48.188;11.566;2023-05-29T01:41:21;23.75;;;9.40;;
64110;SDS011;50401;48.188;11.566;2023-05-29T01:43:48;17.67;;;8.45;;
64110;SDS011;50401;48.188;11.566;2023-05-29T01:46:15;17.10;;;8.77;;
64110;SDS011;50401;48.188;11.566;2023-05-29T01:48:42;19.08;;;8.45;;
64110;SDS011;50401;48.188;11.566;2023-05-29T01:51:08;19.88;;;8.60;;
64110;SDS011;50401;48.188;11.566;2023-05-29T01:53:36;22.83;;;8.35;;
64110;SDS011;50401;48.188;11.566;2023-05-29T01:56:01;17.83;;;8.48;;
64110;SDS011;50401;48.188;11.566;2023-05-29T01:58:27;20.35;;;9.05;;
64110;SDS011;50401;48.188;11.566;2023-05-29T02:00:54;19.27;;;9.32;;
64110;SDS011;50401;48.188;11.566;2023-05-29T02:03:20;25.15;;;9.82;;
64110;SDS011;50401;48.188;11.566;2023-05-29T02:05:46;21.45;;;9.63;;
64110;SDS011;50401;48.188;11.566;2023-05-29T02:08:11;24.30;;;8.82;;
64110;SDS011;50401;48.188;11.566;2023-05-29T02:10:37;19.20;;;9.40;;
64110;SDS011;50401;48.188;11.566;2023-05-29T02:13:02;18.08;;;8.65;;
64110;SDS011;50401;48.188;11.566;2023-05-29T02:15:28;19.58;;;9.18;;
64110;SDS011;50401;48.188;11.566;2023-05-29T02:17:53;20.38;;;9.00;;
64110;SDS011;50401;48.188;11.566;2023-05-29T02:20:18;22.80;;;9.18;;
64110;SDS011;50401;48.188;11.566;2023-05-29T02:22:44;21.95;;;9.88;;
64110;SDS011;50401;48.188;11.566;2023-05-29T02:25:10;17.48;;;8.95;;
64110;SDS011;50401;48.188;11.566;2023-05-29T02:27:36;23.05;;;9.48;;
64110;SDS011;50401;48.188;11.566;2023-05-29T02:30:04;18.63;;;8.85;;
64110;SDS011;50401;48.188;11.566;2023-05-29T02:32:30;17.85;;;8.45;;
64110;SDS011;50401;48.188;11.566;2023-05-29T02:34:55;21.40;;;8.77;;
64110;SDS011;50401;48.188;11.566;2023-05-29T02:37:20;17.33;;;9.07;;
64110;SDS011;50401;48.188;11.566;2023-05-29T02:39:50;19.25;;;9.23;;
64110;SDS011;50401;48.188;11.566;2023-05-29T02:42:15;17.05;;;9.13;;
64110;SDS011;50401;48.188;11.566;2023-05-29T02:44:40;20.23;;;9.50;;
64110;SDS011;50401;48.188;11.566;2023-05-29T02:47:06;20.98;;;8.77;;
64110;SDS011;50401;48.188;11.566;2023-05-29T02:49:31;17.23;;;8.48;;
64110;SDS011;50401;48.188;11.566;2023-05-29T02:51:56;18.73;;;8.98;;
64110;SDS011;50401;48.188;11.566;2023-05-29T02:54:25;22.13;;;9.43;;
64110;SDS011;50401;48.188;11.566;2023-05-29T02:56:51;20.23;;;8.70;;
64110;SDS011;50401;48.188;11.566;2023-05-29T02:59:16;19.90;;;9.02;;
64110;SDS011;50401;48.188;11.566;2023-05-29T03:01:42;20.77;;;8.70;;
64110;SDS011;50401;48.188;11.566;2023-05-29T03:04:08;17.95;;;9.10;;
64110;SDS011;50401;48.188;11.566;2023-05-29T03:06:34;24.58;;;9.25;;
64110;SDS011;50401;48.188;11.566;2023-05-29T03:09:01;16.92;;;8.70;;
64110;SDS011;50401;48.188;11.566;2023-05-29T03:11:27;20.85;;;9.45;;
64110;SDS011;50401;48.188;11.566;2023-05-29T03:13:53;24.65;;;9.50;;
64110;SDS011;50401;48.188;11.566;2023-05-29T03:16:19;19.30;;;9.52;;
64110;SDS011;50401;48.188;11.566;2023-05-29T03:18:46;20.02;;;9.63;;
64110;SDS011;50401;48.188;11.566;2023-05-29T03:21:11;25.83;;;9.40;;
64110;SDS011;50401;48.188;11.566;2023-05-29T03:23:36;18.83;;;9.23;;
64110;SDS011;50401;48.188;11.566;2023-05-29T03:26:02;18.23;;;8.68;;
64110;SDS011;50401;48.188;11.566;2023-05-29T03:28:28;22.08;;;9.13;;
64110;SDS011;50401;48.188;11.566;2023-05-29T03:30:53;15.30;;;8.48;;
64110;SDS011;50401;48.188;11.566;2023-05-29T03:33:18;13.55;;;7.47;;
64110;SDS011;50401;48.188;11.566;2023-05-29T03:35:44;14.60;;;8.20;;
64110;SDS011;50401;48.188;11.566;2023-05-29T03:38:09;14.50;;;8.20;;
64110;SDS011;50401;48.188;11.566;2023-05-29T03:40:35;19.55;;;8.27;;
64110;SDS011;50401;48.188;11.566;2023-05-29T03:43:00;18.73;;;8.50;;
64110;SDS011;50401;48.188;11.566;2023-05-29T03:45:25;15.50;;;7.82;;
64110;SDS011;50401;48.188;11.566;2023-05-29T03:47:51;15.23;;;7.45;;
64110;SDS011;50401;48.188;11.566;2023-05-29T03:50:16;17.25;;;8.80;;
64110;SDS011;50401;48.188;11.566;2023-05-29T03:52:42;20.50;;;8.32;;
64110;SDS011;50401;48.188;11.566;2023-05-29T03:55:10;16.67;;;7.70;;
64110;SDS011;50401;48.188;11.566;2023-05-29T03:57:39;19.42;;;7.07;;
64110;SDS011;50401;48.188;11.566;2023-05-29T04:00:08;20.88;;;8.75;;
64110;SDS011;50401;48.188;11.566;2023-05-29T04:02:36;15.93;;;8.57;;
64110;SDS011;50401;48.188;11.566;2023-05-29T04:05:05;23.85;;;8.55;;
64110;SDS011;50401;48.188;11.566;2023-05-29T04:07:38;16.70;;;7.63;;
64110;SDS011;50401;48.188;11.566;2023-05-29T04:10:07;15.75;;;7.95;;
64110;SDS011;50401;48.188;11.566;2023-05-29T04:12:33;15.57;;;7.60;;
64110;SDS011;50401;48.188;11.566;2023-05-29T04:14:59;21.73;;;8.45;;
64110;SDS011;50401;48.188;11.566;2023-05-29T04:17:24;21.95;;;8.07;;
64110;SDS011;50401;48.188;11.566;2023-05-29T04:19:50;14.68;;;6.97;;
64110;SDS011;50401;48.188;11.566;2023-05-29T04:22:15;16.80;;;8.52;;
64110;SDS011;50401;48.188;11.566;2023-05-29T04:24:41;17.00;;;7.50;;
64110;SDS011;50401;48.188;11.566;2023-05-29T04:27:07;17.65;;;8.27;;
64110;SDS011;50401;48.188;11.566;2023-05-29T04:29:34;18.52;;;8.02;;
64110;SDS011;50401;48.188;11.566;2023-05-29T04:31:59;14.90;;;7.20;;
64110;SDS011;50401;48.188;11.566;2023-05-29T04:34:28;16.08;;;7.38;;
64110;SDS011;50401;48.188;11.566;2023-05-29T04:36:55;12.93;;;7.15;;
64110;SDS011;50401;48.188;11.566;2023-05-29T04:39:23;15.10;;;7.63;;
64110;SDS011;50401;48.188;11.566;2023-05-29T04:41:48;13.77;;;7.57;;
64110;SDS011;50401;48.188;11.566;2023-05-29T04:44:14;13.20;;;7.47;;
64110;SDS011;50401;48.188;11.566;2023-05-29T04:46:40;19.08;;;7.53;;
64110;SDS011;50401;48.188;11.566;2023-05-29T04:49:09;12.52;;;6.85;;
64110;SDS011;50401;48.188;11.566;2023-05-29T04:51:35;18.85;;;7.75;;
64110;SDS011;50401;48.188;11.566;2023-05-29T04:54:01;11.32;;;6.72;;
64110;SDS011;50401;48.188;11.566;2023-05-29T04:56:27;16.25;;;7.63;;
64110;SDS011;50401;48.188;11.566;2023-05-29T04:58:53;18.42;;;8.40;;
64110;SDS011;50401;48.188;11.566;2023-05-29T05:01:18;20.15;;;7.72;;
64110;SDS011;50401;48.188;11.566;2023-05-29T05:03:44;20.20;;;7.70;;
64110;SDS011;50401;48.188;11.566;2023-05-29T05:06:10;18.85;;;7.60;;
64110;SDS011;50401;48.188;11.566;2023-05-29T05:08:37;16.17;;;7.53;;
64110;SDS011;50401;48.188;11.566;2023-05-29T05:11:03;14.07;;;7.00;;
64110;SDS011;50401;48.188;11.566;2023-05-29T05:13:29;20.20;;;8.07;;
64110;SDS011;50401;48.188;11.566;2023-05-29T05:15:54;15.35;;;7.05;;
64110;SDS011;50401;48.188;11.566;2023-05-29T05:18:19;13.43;;;6.82;;
64110;SDS011;50401;48.188;11.566;2023-05-29T05:20:45;15.00;;;7.43;;
64110;SDS011;50401;48.188;11.566;2023-05-29T05:23:11;20.08;;;8.00;;
64110;SDS011;50401;48.188;11.566;2023-05-29T05:25:36;15.88;;;8.35;;
64110;SDS011;50401;48.188;11.566;2023-05-29T05:28:03;15.45;;;7.78;;
64110;SDS011;50401;48.188;11.566;2023-05-29T05:30:33;16.15;;;7.65;;
64110;SDS011;50401;48.188;11.566;2023-05-29T05:32:58;14.85;;;7.57;;
64110;SDS011;50401;48.188;11.566;2023-05-29T05:35:24;14.70;;;7.30;;
64110;SDS011;50401;48.188;11.566;2023-05-29T05:37:49;16.05;;;8.15;;
64110;SDS011;50401;48.188;11.566;2023-05-29T05:40:14;12.82;;;7.40;;
64110;SDS011;50401;48.188;11.566;2023-05-29T05:42:40;18.83;;;8.40;;
64110;SDS011;50401;48.188;11.566;2023-05-29T05:45:05;12.52;;;7.85;;
64110;SDS011;50401;48.188;11.566;2023-05-29T05:47:31;13.80;;;7.13;;
64110;SDS011;50401;48.188;11.566;2023-05-29T05:49:57;22.95;;;8.55;;
64110;SDS011;50401;48.188;11.566;2023-05-29T05:52:23;14.52;;;8.05;;
64110;SDS011;50401;48.188;11.566;2023-05-29T05:54:50;15.73;;;7.85;;
64110;SDS011;50401;48.188;11.566;2023-05-29T05:57:15;14.85;;;8.02;;
64110;SDS011;50401;48.188;11.566;2023-05-29T05:59:40;17.73;;;7.13;;
64110;SDS011;50401;48.188;11.566;2023-05-29T06:02:06;12.20;;;6.97;;
64110;SDS011;50401;48.188;11.566;2023-05-29T06:04:31;14.63;;;7.00;;
64110;SDS011;50401;48.188;11.566;2023-05-29T06:06:57;15.30;;;7.45;;
64110;SDS011;50401;48.188;11.566;2023-05-29T06:09:22;18.75;;;7.78;;
64110;SDS011;50401;48.188;11.566;2023-05-29T06:11:48;20.67;;;7.47;;
64110;SDS011;50401;48.188;11.566;2023-05-29T06:14:14;16.58;;;6.93;;
64110;SDS011;50401;48.188;11.566;2023-05-29T06:16:40;13.77;;;7.10;;
64110;SDS011;50401;48.188;11.566;2023-05-29T06:19:05;12.55;;;7.68;;
64110;SDS011;50401;48.188;11.566;2023-05-29T06:21:31;17.20;;;7.13;;
64110;SDS011;50401;48.188;11.566;2023-05-29T06:23:57;11.68;;;6.68;;
64110;SDS011;50401;48.188;11.566;2023-05-29T06:26:22;14.50;;;7.65;;
64110;SDS011;50401;48.188;11.566;2023-05-29T06:28:49;13.48;;;7.20;;
64110;SDS011;50401;48.188;11.566;2023-05-29T06:31:15;14.40;;;7.50;;
64110;SDS011;50401;48.188;11.566;2023-05-29T06:33:40;20.00;;;7.15;;
64110;SDS011;50401;48.188;11.566;2023-05-29T06:36:06;14.05;;;7.32;;
64110;SDS011;50401;48.188;11.566;2023-05-29T06:38:31;12.23;;;7.18;;
64110;SDS011;50401;48.188;11.566;2023-05-29T06:40:57;13.60;;;7.50;;
64110;SDS011;50401;48.188;11.566;2023-05-29T06:43:22;16.75;;;7.40;;
64110;SDS011;50401;48.188;11.566;2023-05-29T06:45:47;16.88;;;7.70;;
64110;SDS011;50401;48.188;11.566;2023-05-29T06:48:13;12.68;;;7.03;;
64110;SDS011;50401;48.188;11.566;2023-05-29T06:50:38;12.80;;;7.10;;
64110;SDS011;50401;48.188;11.566;2023-05-29T06:53:03;15.30;;;7.57;;
64110;SDS011;50401;48.188;11.566;2023-05-29T06:55:29;15.55;;;7.75;;
64110;SDS011;50401;48.188;11.566;2023-05-29T06:57:55;18.63;;;7.75;;
64110;SDS011;50401;48.188;11.566;2023-05-29T07:00:20;17.23;;;7.72;;
64110;SDS011;50401;48.188;11.566;2023-05-29T07:02:46;17.33;;;8.02;;
64110;SDS011;50401;48.188;11.566;2023-05-29T07:05:11;19.13;;;8.35;;
64110;SDS011;50401;48.188;11.566;2023-05-29T07:07:36;14.73;;;8.45;;
64110;SDS011;50401;48.188;11.566;2023-05-29T07:10:02;14.48;;;6.65;;
64110;SDS011;50401;48.188;11.566;2023-05-29T07:12:27;14.57;;;7.75;;
64110;SDS011;50401;48.188;11.566;2023-05-29T07:14:52;17.85;;;8.55;;
64110;SDS011;50401;48.188;11.566;2023-05-29T07:17:18;13.38;;;7.90;;
64110;SDS011;50401;48.188;11.566;2023-05-29T07:19:43;16.35;;;7.63;;
64110;SDS011;50401;48.188;11.566;2023-05-29T07:22:09;14.88;;;6.65;;
64110;SDS011;50401;48.188;11.566;2023-05-29T07:24:35;14.10;;;7.70;;
64110;SDS011;50401;48.188;11.566;2023-05-29T07:27:00;15.13;;;7.93;;
64110;SDS011;50401;48.188;11.566;2023-05-29T07:29:26;16.35;;;7.38;;
64110;SDS011;50401;48.188;11.566;2023-05-29T07:31:51;15.68;;;6.88;;
64110;SDS011;50401;48.188;11.566;2023-05-29T07:34:17;16.95;;;7.72;;
64110;SDS011;50401;48.188;11.566;2023-05-29T07:39:23;14.10;;;7.45;;
64110;SDS011;50401;48.188;11.566;2023-05-29T07:41:49;13.07;;;6.70;;
64110;SDS011;50401;48.188;11.566;2023-05-29T07:44:15;12.25;;;7.45;;
64110;SDS011;50401;48.188;11.566;2023-05-29T07:46:40;11.82;;;7.32;;
64110;SDS011;50401;48.188;11.566;2023-05-29T07:49:05;14.23;;;7.32;;
64110;SDS011;50401;48.188;11.566;2023-05-29T07:51:30;19.67;;;7.68;;
64110;SDS011;50401;48.188;11.566;2023-05-29T07:53:56;18.35;;;8.30;;
64110;SDS011;50401;48.188;11.566;2023-05-29T07:56:21;12.90;;;7.65;;
64110;SDS011;50401;48.188;11.566;2023-05-29T07:58:47;13.98;;;7.57;;
64110;SDS011;50401;48.188;11.566;2023-05-29T08:01:12;13.50;;;7.43;;
64110;SDS011;50401;48.188;11.566;2023-05-29T08:03:38;12.95;;;7.93;;
64110;SDS011;50401;48.188;11.566;2023-05-29T08:06:06;12.60;;;7.60;;
64110;SDS011;50401;48.188;11.566;2023-05-29T08:08:31;13.35;;;7.82;;
64110;SDS011;50401;48.188;11.566;2023-05-29T08:10:57;17.92;;;7.68;;
64110;SDS011;50401;48.188;11.566;2023-05-29T08:13:22;14.93;;;7.68;;
64110;SDS011;50401;48.188;11.566;2023-05-29T08:15:47;16.67;;;8.00;;
64110;SDS011;50401;48.188;11.566;2023-05-29T08:18:13;16.08;;;7.55;;
64110;SDS011;50401;48.188;11.566;2023-05-29T08:20:38;11.20;;;7.80;;
64110;SDS011;50401;48.188;11.566;2023-05-29T08:23:03;15.27;;;7.95;;
64110;SDS011;50401;48.188;11.566;2023-05-29T08:25:29;16.38;;;8.07;;
64110;SDS011;50401;48.188;11.566;2023-05-29T08:27:54;16.08;;;7.68;;
64110;SDS011;50401;48.188;11.566;2023-05-29T08:30:19;13.20;;;7.78;;
64110;SDS011;50401;48.188;11.566;2023-05-29T08:32:45;13.98;;;7.78;;
64110;SDS011;50401;48.188;11.566;2023-05-29T08:35:11;14.07;;;8.07;;
64110;SDS011;50401;48.188;11.566;2023-05-29T08:37:36;15.35;;;7.47;;
64110;SDS011;50401;48.188;11.566;2023-05-29T08:40:02;13.10;;;7.00;;
64110;SDS011;50401;48.188;11.566;2023-05-29T08:42:33;14.27;;;7.68;;
64110;SDS011;50401;48.188;11.566;2023-05-29T08:45:02;14.25;;;7.22;;
64110;SDS011;50401;48.188;11.566;2023-05-29T08:47:30;13.60;;;6.95;;
64110;SDS011;50401;48.188;11.566;2023-05-29T08:49:57;17.73;;;7.55;;
64110;SDS011;50401;48.188;11.566;2023-05-29T08:52:26;13.73;;;7.63;;
64110;SDS011;50401;48.188;11.566;2023-05-29T08:54:52;13.23;;;6.28;;
64110;SDS011;50401;48.188;11.566;2023-05-29T08:57:19;18.05;;;7.78;;
64110;SDS011;50401;48.188;11.566;2023-05-29T08:59:45;13.60;;;7.57;;
64110;SDS011;50401;48.188;11.566;2023-05-29T09:04:44;14.50;;;6.85;;
64110;SDS011;50401;48.188;11.566;2023-05-29T09:07:18;14.00;;;6.95;;
64110;SDS011;50401;48.188;11.566;2023-05-29T09:09:47;18.88;;;6.93;;
64110;SDS011;50401;48.188;11.566;2023-05-29T09:12:13;15.13;;;7.07;;
64110;SDS011;50401;48.188;11.566;2023-05-29T09:14:40;23.20;;;7.15;;
64110;SDS011;50401;48.188;11.566;2023-05-29T09:17:07;14.15;;;7.30;;
64110;SDS011;50401;48.188;11.566;2023-05-29T09:19:35;15.85;;;6.88;;
64110;SDS011;50401;48.188;11.566;2023-05-29T09:22:06;18.25;;;8.00;;
64110;SDS011;50401;48.188;11.566;2023-05-29T09:24:33;13.90;;;6.28;;
64110;SDS011;50401;48.188;11.566;2023-05-29T09:27:01;13.32;;;6.45;;
64110;SDS011;50401;48.188;11.566;2023-05-29T09:29:30;14.85;;;6.35;;
64110;SDS011;50401;48.188;11.566;2023-05-29T09:31:56;13.75;;;6.85;;
64110;SDS011;50401;48.188;11.566;2023-05-29T09:34:23;14.45;;;5.97;;
64110;SDS011;50401;48.188;11.566;2023-05-29T09:37:05;16.85;;;6.38;;
64110;SDS011;50401;48.188;11.566;2023-05-29T09:39:44;13.40;;;6.18;;
64110;SDS011;50401;48.188;11.566;2023-05-29T09:42:11;16.35;;;6.50;;
64110;SDS011;50401;48.188;11.566;2023-05-29T09:44:37;12.82;;;5.97;;
64110;SDS011;50401;48.188;11.566;2023-05-29T09:47:04;13.50;;;5.90;;
64110;SDS011;50401;48.188;11.566;2023-05-29T09:49:32;11.02;;;6.03;;
64110;SDS011;50401;48.188;11.566;2023-05-29T09:51:57;14.52;;;5.70;;
64110;SDS011;50401;48.188;11.566;2023-05-29T09:54:24;14.18;;;5.47;;
64110;SDS011;50401;48.188;11.566;2023-05-29T09:56:53;15.52;;;6.10;;
64110;SDS011;50401;48.188;11.566;2023-05-29T09:59:20;13.85;;;5.78;;
64110;SDS011;50401;48.188;11.566;2023-05-29T10:01:48;11.80;;;5.78;;
64110;SDS011;50401;48.188;11.566;2023-05-29T10:04:20;13.23;;;5.80;;
64110;SDS011;50401;48.188;11.566;2023-05-29T10:06:46;16.55;;;6.88;;
64110;SDS011;50401;48.188;11.566;2023-05-29T10:09:14;13.68;;;5.50;;
64110;SDS011;50401;48.188;11.566;2023-05-29T10:11:43;11.07;;;5.70;;
64110;SDS011;50401;48.188;11.566;2023-05-29T10:14:09;11.38;;;6.00;;
64110;SDS011;50401;48.188;11.566;2023-05-29T10:16:40;12.15;;;5.85;;
64110;SDS011;50401;48.188;11.566;2023-05-29T10:19:10;12.18;;;5.63;;
64110;SDS011;50401;48.188;11.566;2023-05-29T10:21:38;13.57;;;6.43;;
64110;SDS011;50401;48.188;11.566;2023-05-29T10:24:06;15.93;;;6.07;;
64110;SDS011;50401;48.188;11.566;2023-05-29T10:26:34;16.38;;;6.25;;
64110;SDS011;50401;48.188;11.566;2023-05-29T10:31:30;14.32;;;5.97;;
64110;SDS011;50401;48.188;11.566;2023-05-29T10:34:25;14.15;;;5.68;;
64110;SDS011;50401;48.188;11.566;2023-05-29T10:40:06;11.65;;;5.95;;
64110;SDS011;50401;48.188;11.566;2023-05-29T10:42:45;14.45;;;5.68;;
64110;SDS011;50401;48.188;11.566;2023-05-29T10:47:53;11.95;;;5.13;;
64110;SDS011;50401;48.188;11.566;2023-05-29T10:50:36;16.73;;;5.00;;
64110;SDS011;50401;48.188;11.566;2023-05-29T10:53:08;18.38;;;6.07;;
64110;SDS011;50401;48.188;11.566;2023-05-29T10:55:38;12.13;;;5.85;;
64110;SDS011;50401;48.188;11.566;2023-05-29T10:58:05;15.40;;;5.78;;
64110;SDS011;50401;48.188;11.566;2023-05-29T11:00:31;13.05;;;5.10;;
64110;SDS011;50401;48.188;11.566;2023-05-29T11:02:58;11.10;;;5.45;;
64110;SDS011;50401;48.188;11.566;2023-05-29T11:05:27;8.23;;;4.65;;
64110;SDS011;50401;48.188;11.566;2023-05-29T11:07:55;11.50;;;5.45;;
64110;SDS011;50401;48.188;11.566;2023-05-29T11:10:41;11.68;;;4.93;;
64110;SDS011;50401;48.188;11.566;2023-05-29T11:13:07;10.43;;;5.35;;
64110;SDS011;50401;48.188;11.566;2023-05-29T11:15:33;10.07;;;5.07;;
64110;SDS011;50401;48.188;11.566;2023-05-29T11:18:08;16.40;;;6.43;;
64110;SDS011;50401;48.188;11.566;2023-05-29T11:20:37;11.90;;;4.75;;
64110;SDS011;50401;48.188;11.566;2023-05-29T11:23:08;12.45;;;5.80;;
64110;SDS011;50401;48.188;11.566;2023-05-29T11:25:46;12.18;;;5.45;;
64110;SDS011;50401;48.188;11.566;2023-05-29T11:28:12;10.68;;;5.38;;
64110;SDS011;50401;48.188;11.566;2023-05-29T11:30:45;13.35;;;5.57;;
64110;SDS011;50401;48.188;11.566;2023-05-29T11:33:15;13.70;;;6.15;;
64110;SDS011;50401;48.188;11.566;2023-05-29T11:35:46;13.07;;;6.05;;
64110;SDS011;50401;48.188;11.566;2023-05-29T11:40:40;11.35;;;5.65;;
64110;SDS011;50401;48.188;11.566;2023-05-29T11:43:06;11.07;;;4.82;;
64110;SDS011;50401;48.188;11.566;2023-05-29T11:45:32;11.65;;;4.80;;
64110;SDS011;50401;48.188;11.566;2023-05-29T11:48:02;9.18;;;4.97;;
64110;SDS011;50401;48.188;11.566;2023-05-29T11:50:29;13.88;;;5.05;;
64110;SDS011;50401;48.188;11.566;2023-05-29T11:52:59;11.10;;;5.00;;
64110;SDS011;50401;48.188;11.566;2023-05-29T11:55:25;10.35;;;5.07;;
64110;SDS011;50401;48.188;11.566;2023-05-29T11:57:59;12.52;;;5.47;;
64110;SDS011;50401;48.188;11.566;2023-05-29T12:00:26;9.25;;;5.40;;
64110;SDS011;50401;48.188;11.566;2023-05-29T12:02:57;10.10;;;5.50;;
64110;SDS011;50401;48.188;11.566;2023-05-29T12:05:23;16.27;;;5.65;;
64110;SDS011;50401;48.188;11.566;2023-05-29T12:07:50;12.30;;;5.47;;
64110;SDS011;50401;48.188;11.566;2023-05-29T12:10:17;11.83;;;5.13;;
64110;SDS011;50401;48.188;11.566;2023-05-29T12:12:46;13.05;;;5.40;;
64110;SDS011;50401;48.188;11.566;2023-05-29T12:15:13;17.13;;;5.32;;
64110;SDS011;50401;48.188;11.566;2023-05-29T12:17:38;7.25;;;4.93;;
64110;SDS011;50401;48.188;11.566;2023-05-29T12:20:05;10.63;;;5.35;;
64110;SDS011;50401;48.188;11.566;2023-05-29T12:22:34;11.60;;;5.95;;
64110;SDS011;50401;48.188;11.566;2023-05-29T12:27:34;14.05;;;5.30;;
64110;SDS011;50401;48.188;11.566;2023-05-29T12:30:06;12.48;;;5.32;;
64110;SDS011;50401;48.188;11.566;2023-05-29T12:32:40;18.70;;;5.65;;
64110;SDS011;50401;48.188;11.566;2023-05-29T12:35:16;14.07;;;4.68;;
64110;SDS011;50401;48.188;11.566;2023-05-29T12:37:44;10.07;;;5.18;;
64110;SDS011;50401;48.188;11.566;2023-05-29T12:40:15;9.30;;;4.97;;
64110;SDS011;50401;48.188;11.566;2023-05-29T12:42:41;13.23;;;5.53;;
64110;SDS011;50401;48.188;11.566;2023-05-29T12:45:07;9.93;;;5.50;;
64110;SDS011;50401;48.188;11.566;2023-05-29T12:47:34;10.50;;;5.68;;
64110;SDS011;50401;48.188;11.566;2023-05-29T12:50:04;12.55;;;5.03;;
64110;SDS011;50401;48.188;11.566;2023-05-29T12:52:44;9.48;;;4.88;;
64110;SDS011;50401;48.188;11.566;2023-05-29T12:55:09;11.82;;;5.05;;
64110;SDS011;50401;48.188;11.566;2023-05-29T12:57:34;15.15;;;6.68;;
64110;SDS011;50401;48.188;11.566;2023-05-29T13:00:00;13.90;;;5.15;;
64110;SDS011;50401;48.188;11.566;2023-05-29T13:02:25;10.48;;;5.53;;
64110;SDS011;50401;48.188;11.566;2023-05-29T13:04:51;9.57;;;5.78;;
64110;SDS011;50401;48.188;11.566;2023-05-29T13:07:16;11.43;;;5.13;;
64110;SDS011;50401;48.188;11.566;2023-05-29T13:09:41;10.82;;;4.90;;
64110;SDS011;50401;48.188;11.566;2023-05-29T13:12:07;8.60;;;4.60;;
64110;SDS011;50401;48.188;11.566;2023-05-29T13:14:32;9.68;;;4.97;;
64110;SDS011;50401;48.188;11.566;2023-05-29T13:16:58;9.35;;;4.55;;
64110;SDS011;50401;48.188;11.566;2023-05-29T13:19:23;12.07;;;6.00;;
64110;SDS011;50401;48.188;11.566;2023-05-29T13:21:48;17.90;;;4.93;;
64110;SDS011;50401;48.188;11.566;2023-05-29T13:24:14;9.85;;;4.95;;
64110;SDS011;50401;48.188;11.566;2023-05-29T13:26:40;10.82;;;4.93;;
64110;SDS011;50401;48.188;11.566;2023-05-29T13:29:05;14.35;;;5.40;;
64110;SDS011;50401;48.188;11.566;2023-05-29T13:31:31;10.07;;;5.13;;
64110;SDS011;50401;48.188;11.566;2023-05-29T13:33:56;8.55;;;5.00;;
64110;SDS011;50401;48.188;11.566;2023-05-29T13:36:22;15.13;;;4.95;;
64110;SDS011;50401;48.188;11.566;2023-05-29T13:38:47;9.05;;;4.90;;
64110;SDS011;50401;48.188;11.566;2023-05-29T13:41:12;10.50;;;5.28;;
64110;SDS011;50401;48.188;11.566;2023-05-29T13:43:38;9.85;;;5.10;;
64110;SDS011;50401;48.188;11.566;2023-05-29T13:46:03;10.52;;;4.95;;
64110;SDS011;50401;48.188;11.566;2023-05-29T13:48:29;14.48;;;5.28;;
64110;SDS011;50401;48.188;11.566;2023-05-29T13:50:54;13.23;;;5.45;;
64110;SDS011;50401;48.188;11.566;2023-05-29T13:53:19;7.57;;;4.95;;
64110;SDS011;50401;48.188;11.566;2023-05-29T13:55:44;11.60;;;5.22;;
64110;SDS011;50401;48.188;11.566;2023-05-29T13:58:10;8.95;;;4.80;;
64110;SDS011;50401;48.188;11.566;2023-05-29T14:00:35;8.98;;;4.93;;
64110;SDS011;50401;48.188;11.566;2023-05-29T14:03:00;10.93;;;5.22;;
64110;SDS011;50401;48.188;11.566;2023-05-29T14:05:26;8.07;;;4.97;;
64110;SDS011;50401;48.188;11.566;2023-05-29T14:07:51;11.60;;;5.15;;
64110;SDS011;50401;48.188;11.566;2023-05-29T14:10:17;9.50;;;4.72;;
64110;SDS011;50401;48.188;11.566;2023-05-29T14:12:42;13.45;;;4.97;;
64110;SDS011;50401;48.188;11.566;2023-05-29T14:15:08;16.98;;;5.30;;
64110;SDS011;50401;48.188;11.566;2023-05-29T14:17:33;14.07;;;5.15;;
64110;SDS011;50401;48.188;11.566;2023-05-29T14:19:59;8.88;;;4.72;;
64110;SDS011;50401;48.188;11.566;2023-05-29T14:22:29;9.45;;;5.05;;
64110;SDS011;50401;48.188;11.566;2023-05-29T14:24:54;8.20;;;5.00;;
64110;SDS011;50401;48.188;11.566;2023-05-29T14:27:20;11.57;;;4.93;;
64110;SDS011;50401;48.188;11.566;2023-05-29T14:29:46;13.95;;;5.25;;
64110;SDS011;50401;48.188;11.566;2023-05-29T14:32:11;9.52;;;4.95;;
64110;SDS011;50401;48.188;11.566;2023-05-29T14:34:37;12.90;;;5.07;;
64110;SDS011;50401;48.188;11.566;2023-05-29T14:37:03;11.00;;;4.97;;
64110;SDS011;50401;48.188;11.566;2023-05-29T14:39:28;16.33;;;5.38;;
64110;SDS011;50401;48.188;11.566;2023-05-29T14:41:54;14.52;;;4.75;;
64110;SDS011;50401;48.188;11.566;2023-05-29T14:44:19;10.45;;;5.18;;
64110;SDS011;50401;48.188;11.566;2023-05-29T14:46:45;6.20;;;4.32;;
64110;SDS011;50401;48.188;11.566;2023-05-29T14:49:10;9.07;;;4.78;;